.
WxDataArchive / Data Records for 2010-05-19
2010-05-18 May 2010 2010-05-20

Data Records for Wednesday, 19 May 2010

Time	Temp	Chill	HIndex	Humid	Dewpt	 Wind 	HiWind	WindDir	Rain 	Barom 
-----	----	-----	------	-----	-----	------	------	-------	-----	----- 
00:00	52.9	52.9	52.9	86	48.8	0	3	68	0.00	29.943 
00:05	52.8	52.8	52.8	86	48.7	1	3	68	0.00	29.943 
00:10	52.8	52.8	52.8	86	48.7	1	4	68	0.00	29.943 
00:15	52.8	52.8	52.8	85	48.4	1	5	112	0.00	29.942 
00:20	52.6	52.6	52.6	85	48.2	1	5	112	0.00	29.942 
00:25	52.5	52.5	52.5	85	48.1	0	3	112	0.00	29.942 
00:30	52.3	52.3	52.3	85	47.9	0	3	112	0.00	29.938 
00:35	52.2	52.2	52.2	85	47.8	0	1	90	0.00	29.938 
00:40	52.0	52.0	52.0	86	47.9	0	0	---	0.00	29.938 
00:45	51.7	51.7	51.7	86	47.6	0	2	180	0.00	29.939 
00:50	51.6	51.6	51.6	86	47.5	0	2	180	0.00	29.939 
00:55	51.4	51.4	51.4	87	47.7	0	1	180	0.00	29.939 
01:00	51.1	51.1	51.1	87	47.4	0	1	158	0.00	29.939 
01:05	51.1	51.1	51.1	87	47.4	0	2	158	0.00	29.939 
01:10	51.0	51.0	51.0	87	47.3	0	2	135	0.00	29.939 
01:15	50.8	50.8	50.8	87	47.1	0	2	135	0.00	29.939 
01:20	50.8	50.8	50.8	87	47.1	0	3	135	0.00	29.939 
01:25	50.8	50.8	50.8	87	47.1	0	1	135	0.00	29.939 
01:30	50.8	50.8	50.8	87	47.1	0	0	---	0.00	29.944 
01:35	50.7	50.7	50.7	87	47.0	0	0	---	0.00	29.944 
01:40	50.5	50.5	50.5	87	46.8	0	0	---	0.00	29.944 
01:45	50.2	50.2	50.2	88	46.8	0	0	---	0.00	29.948 
01:50	49.9	49.9	49.9	88	46.5	0	0	---	0.00	29.948 
01:55	49.8	49.8	49.8	88	46.4	0	0	---	0.00	29.948 
02:00	49.6	49.6	49.6	89	46.5	0	0	---	0.00	29.947 
02:05	49.5	49.5	49.5	89	46.4	0	0	---	0.00	29.947 
02:10	49.6	49.6	49.6	90	46.8	0	3	135	0.00	29.947 
02:15	49.6	49.6	49.6	90	46.8	0	0	---	0.00	29.943 
02:20	49.5	49.5	49.5	90	46.7	0	0	---	0.00	29.943 
02:25	49.4	49.4	49.4	90	46.6	0	0	---	0.00	29.943 
02:30	49.2	49.2	49.2	90	46.4	0	0	---	0.00	29.943 
02:35	49.1	49.1	49.1	90	46.3	0	0	---	0.00	29.943 
02:40	48.8	48.8	48.8	90	46.0	0	0	---	0.00	29.943 
02:45	48.6	48.6	48.6	90	45.8	0	0	---	0.00	29.939 
02:50	48.5	48.5	48.5	91	46.0	0	0	---	0.00	29.939 
02:55	48.3	48.3	48.3	91	45.8	0	0	---	0.00	29.939 
03:00	48.2	48.2	48.2	91	45.7	0	0	---	0.00	29.932 
03:05	48.0	48.0	48.0	91	45.5	0	0	---	0.00	29.932 
03:10	47.9	47.9	47.9	91	45.4	0	0	---	0.00	29.932 
03:15	47.9	47.9	47.9	92	45.7	0	0	---	0.00	29.929 
03:20	47.9	47.9	47.9	92	45.7	0	0	---	0.00	29.929 
03:25	47.9	47.9	47.9	92	45.7	0	0	---	0.00	29.929 
03:30	47.7	47.7	47.7	92	45.5	0	0	---	0.00	29.931 
03:35	47.7	47.7	47.7	92	45.5	0	0	---	0.00	29.931 
03:40	47.7	47.7	47.7	93	45.8	0	0	---	0.00	29.931 
03:45	47.7	47.7	47.7	93	45.8	0	0	---	0.00	29.934 
03:50	47.7	47.7	47.7	93	45.8	0	0	---	0.00	29.934 
03:55	47.6	47.6	47.6	93	45.7	0	0	---	0.00	29.934 
04:00	47.6	47.6	47.6	93	45.7	0	1	135	0.00	29.934 
04:05	47.6	47.6	47.6	93	45.7	0	0	---	0.00	29.934 
04:10	47.6	47.6	47.6	94	46.0	0	0	---	0.00	29.934 
04:15	47.7	47.7	47.7	94	46.1	0	0	---	0.00	29.938 
04:20	47.7	47.7	47.7	94	46.1	0	0	---	0.00	29.938 
04:25	47.6	47.6	47.6	94	46.0	0	0	---	0.00	29.938 
04:30	47.6	47.6	47.6	94	46.0	0	0	---	0.00	29.940 
04:35	47.6	47.6	47.6	94	46.0	0	0	---	0.00	29.940 
04:40	47.6	47.6	47.6	94	46.0	0	0	---	0.00	29.940 
04:45	47.4	47.4	47.4	94	45.8	0	0	---	0.00	29.944 
04:50	47.3	47.3	47.3	94	45.7	0	3	135	0.00	29.944 
04:55	47.3	47.3	47.3	94	45.7	0	0	---	0.00	29.944 
05:00	47.4	47.4	47.4	94	45.8	0	2	135	0.00	29.946 
05:05	47.3	47.3	47.3	94	45.7	0	0	---	0.00	29.946 
05:10	47.3	47.3	47.3	94	45.7	0	0	---	0.00	29.946 
05:15	47.1	47.1	47.1	94	45.5	0	0	---	0.00	29.950 
05:20	47.1	47.1	47.1	94	45.5	0	1	135	0.00	29.950 
05:25	47.1	47.1	47.1	94	45.5	0	1	135	0.00	29.950 
05:30	47.1	47.1	47.1	94	45.5	0	0	---	0.00	29.956 
05:35	47.0	47.0	47.0	94	45.4	0	0	---	0.00	29.956 
05:40	47.0	47.0	47.0	94	45.4	0	0	---	0.00	29.956 
05:45	47.0	47.0	47.0	94	45.4	0	0	---	0.00	29.956 
05:50	47.0	47.0	47.0	94	45.4	0	0	---	0.00	29.956 
05:55	47.0	47.0	47.0	94	45.4	0	0	---	0.00	29.956 
06:00	47.0	47.0	47.0	94	45.4	0	0	---	0.00	29.957 
06:05	46.8	46.8	46.8	94	45.2	0	0	---	0.00	29.957 
06:10	46.8	46.8	46.8	94	45.2	0	0	---	0.00	29.957 
06:15	47.0	47.0	47.0	94	45.4	0	0	---	0.00	29.958 
06:20	47.0	47.0	47.0	94	45.4	0	1	135	0.00	29.958 
06:25	47.1	47.1	47.1	94	45.5	0	0	---	0.00	29.958 
06:30	47.1	47.1	47.1	95	45.7	0	0	---	0.00	29.963 
06:35	47.3	47.3	47.3	95	45.9	0	2	135	0.00	29.963 
06:40	47.4	47.4	47.4	95	46.0	0	1	135	0.00	29.963 
06:45	47.6	47.6	47.6	95	46.2	0	0	---	0.00	29.971 
06:50	47.7	47.7	47.7	95	46.3	0	0	---	0.00	29.971 
06:55	48.0	48.0	48.0	95	46.6	0	1	135	0.00	29.971 
07:00	48.2	48.2	48.2	95	46.8	0	1	135	0.00	29.975 
07:05	48.5	48.5	48.5	95	47.1	0	2	135	0.00	29.975 
07:10	48.6	48.6	48.6	95	47.2	0	0	---	0.00	29.975 
07:15	48.8	48.8	48.8	95	47.4	0	1	135	0.00	29.976 
07:20	48.9	48.9	48.9	95	47.5	0	1	135	0.00	29.976 
07:25	49.2	49.2	49.2	95	47.8	0	1	135	0.00	29.976 
07:30	49.4	49.4	49.4	94	47.7	0	0	---	0.00	29.979 
07:35	49.5	49.5	49.5	94	47.8	0	0	---	0.00	29.979 
07:40	49.8	49.8	49.8	94	48.1	0	1	135	0.00	29.979 
07:45	49.9	49.9	49.9	94	48.2	0	0	---	0.00	29.984 
07:50	50.2	50.2	50.2	94	48.5	0	1	135	0.00	29.984 
07:55	50.4	50.4	50.4	93	48.5	0	1	135	0.00	29.984 
08:00	50.7	50.7	50.7	93	48.7	0	4	135	0.00	29.981 
08:05	50.8	50.8	50.8	93	48.8	0	1	135	0.00	29.981 
08:10	51.1	51.1	51.1	92	48.9	0	3	68	0.00	29.981 
08:15	51.3	51.3	51.3	92	49.1	1	5	90	0.00	29.982 
08:20	51.6	51.6	51.6	91	49.1	0	2	135	0.00	29.982 
08:25	51.7	51.7	51.7	91	49.2	1	6	135	0.00	29.982 
08:30	51.9	51.9	51.9	90	49.1	1	4	225	0.00	29.985 
08:35	52.0	52.0	52.0	89	48.9	1	3	135	0.00	29.985 
08:40	52.2	52.2	52.2	88	48.8	1	6	135	0.00	29.985 
08:45	52.3	52.3	52.3	88	48.9	1	5	135	0.00	29.986 
08:50	52.5	52.5	52.5	87	48.7	1	4	112	0.00	29.986 
08:55	52.8	52.8	52.8	88	49.3	0	2	112	0.00	29.986 
09:00	53.1	53.1	53.1	87	49.3	0	3	112	0.00	29.984 
09:05	53.3	53.3	53.3	87	49.5	1	4	90	0.00	29.984 
09:10	53.6	53.6	53.6	86	49.5	1	5	90	0.00	29.984 
09:15	53.9	53.9	53.9	85	49.5	1	4	112	0.00	29.985 
09:20	54.4	54.4	54.4	84	49.7	1	5	112	0.00	29.985 
09:25	54.4	54.4	54.4	83	49.3	3	11	112	0.00	29.985 
09:30	54.5	54.5	54.5	82	49.1	2	9	90	0.00	29.987 
09:35	54.8	54.8	54.8	83	49.7	2	6	90	0.00	29.987 
09:40	55.0	55.0	55.0	81	49.3	3	9	112	0.00	29.987 
09:45	55.0	55.0	55.0	81	49.3	3	6	90	0.00	29.990 
09:50	55.1	55.1	55.1	81	49.4	3	8	112	0.00	29.990 
09:55	55.3	55.3	55.3	81	49.6	2	5	112	0.00	29.990 
10:00	55.7	55.7	55.7	81	50.0	2	5	90	0.00	29.988 
10:05	55.7	55.7	55.7	78	48.9	4	10	112	0.00	29.988 
10:10	56.0	56.0	56.0	78	49.2	4	7	112	0.00	29.988 
10:15	56.2	56.2	56.2	77	49.1	4	7	90	0.00	29.983 
10:20	56.5	56.5	56.5	77	49.4	5	11	90	0.00	29.983 
10:25	57.3	57.3	57.3	77	50.1	3	7	112	0.00	29.983 
10:30	58.1	58.1	58.1	76	50.6	1	6	112	0.00	29.989 
10:35	58.1	58.1	58.1	74	49.9	2	7	112	0.00	29.989 
10:40	58.1	58.1	58.1	75	50.2	3	10	112	0.00	29.989 
10:45	58.3	58.3	58.3	75	50.4	3	9	90	0.00	29.989 
10:50	58.6	58.6	58.6	72	49.6	4	11	90	0.00	29.989 
10:55	58.3	58.3	58.3	73	49.7	3	7	112	0.00	29.989 
11:00	58.6	58.6	58.6	73	50.0	3	11	112	0.00	29.989 
11:05	58.9	58.9	58.9	73	50.3	2	9	112	0.00	29.989 
11:10	58.6	58.6	58.6	74	50.3	3	9	112	0.00	29.989 
11:15	58.4	58.4	58.4	75	50.5	3	12	90	0.00	29.981 
11:20	59.2	59.2	59.2	73	50.5	3	12	112	0.00	29.981 
11:25	59.8	59.8	59.8	74	51.5	2	7	68	0.00	29.981 
11:30	59.9	59.9	59.9	71	50.5	5	10	112	0.00	29.982 
11:35	60.1	60.1	60.1	72	51.0	3	9	112	0.00	29.982 
11:40	60.1	60.1	60.1	72	51.0	4	8	90	0.00	29.982 
11:45	60.1	60.1	60.1	71	50.7	4	13	112	0.00	29.986 
11:50	59.9	59.9	59.9	72	50.8	4	11	90	0.00	29.986 
11:55	60.4	60.4	60.4	71	50.9	3	10	90	0.00	29.986 
12:00	60.1	60.1	60.1	71	50.7	4	7	112	0.00	29.995 
12:05	59.6	59.6	59.6	70	49.8	4	11	90	0.00	29.995 
12:10	59.9	59.9	59.9	73	51.2	3	10	90	0.00	29.995 
12:15	60.5	60.5	60.5	71	51.0	3	10	112	0.00	29.996 
12:20	60.5	60.5	60.5	70	50.7	4	9	90	0.00	29.996 
12:25	60.5	60.5	60.5	73	51.8	2	5	90	0.00	29.996 
12:30	60.9	60.9	60.9	72	51.8	3	6	112	0.00	29.996 
12:35	60.9	60.9	60.9	71	51.4	3	7	90	0.00	29.996 
12:40	61.0	61.0	61.0	70	51.1	4	7	112	0.00	29.996 
12:45	61.2	61.2	61.2	71	51.7	3	7	112	0.00	29.994 
12:50	61.2	61.2	61.2	70	51.3	1	3	112	0.00	29.994 
12:55	61.0	61.0	61.0	71	51.5	2	7	135	0.00	29.994 
13:00	61.0	61.0	61.0	71	51.5	2	4	112	0.00	30.002 
13:05	61.8	61.8	61.8	69	51.5	3	7	90	0.00	30.002 
13:10	62.4	62.4	62.4	67	51.3	4	9	90	0.00	30.002 
13:15	62.9	62.9	62.9	69	52.6	3	10	112	0.00	30.001 
13:20	63.2	63.2	63.2	68	52.5	5	11	112	0.00	30.001 
13:25	63.7	63.7	63.7	64	51.3	2	7	68	0.00	30.001 
13:30	64.2	64.2	64.2	65	52.2	3	8	90	0.00	30.003 
13:35	64.3	64.3	64.3	65	52.3	2	6	112	0.00	30.003 
13:40	64.0	64.0	64.0	66	52.4	0	1	135	0.00	30.003 
13:45	63.5	63.5	63.5	64	51.1	2	7	112	0.00	30.006 
13:50	63.7	63.7	63.7	67	52.5	2	6	112	0.00	30.006 
13:55	63.7	63.7	63.7	68	52.9	1	7	112	0.00	30.006 
14:00	64.0	64.0	64.0	66	52.4	2	6	112	0.00	30.010 
14:05	64.5	64.5	64.5	65	52.5	2	5	90	0.00	30.010 
14:10	65.6	65.6	65.6	68	54.7	2	7	90	0.00	30.010 
14:15	65.8	65.8	65.8	64	53.3	2	6	112	0.00	30.009 
14:20	65.8	65.8	65.8	61	52.0	2	9	112	0.00	30.009 
14:25	66.1	66.1	66.1	63	53.1	1	4	112	0.00	30.009 
14:30	66.6	66.6	66.6	59	51.8	1	5	112	0.00	30.009 
14:35	66.8	66.8	66.8	64	54.2	2	5	90	0.00	30.009 
14:40	67.3	67.3	67.3	60	52.9	1	4	90	0.00	30.009 
14:45	67.3	67.3	67.3	64	54.7	2	7	90	0.00	30.009 
14:50	67.4	67.4	67.4	59	52.6	1	7	135	0.00	30.009 
14:55	67.3	67.3	67.3	58	52.0	2	7	112	0.00	30.009 
15:00	67.4	67.4	67.4	63	54.4	1	5	90	0.00	30.010 
15:05	67.9	67.9	67.9	62	54.4	1	3	135	0.00	30.010 
15:10	68.3	68.3	68.3	62	54.8	1	5	68	0.00	30.010 
15:15	68.3	68.3	68.3	60	53.9	2	6	68	0.00	30.008 
15:20	68.3	68.3	68.3	56	52.0	1	5	112	0.00	30.008 
15:25	68.4	68.4	68.4	57	52.6	2	6	112	0.00	30.008 
15:30	68.4	68.4	68.4	57	52.6	2	5	90	0.00	30.008 
15:35	68.8	68.8	68.8	56	52.5	2	6	112	0.00	30.008 
15:40	68.9	68.9	68.9	52	50.5	3	10	112	0.00	30.008 
15:45	69.1	69.1	69.1	55	52.2	2	5	90	0.00	30.007 
15:50	69.4	69.4	69.4	54	52.0	1	5	112	0.00	30.007 
15:55	69.8	69.8	69.8	56	53.4	1	4	112	0.00	30.007 
16:00	69.8	69.8	69.8	51	50.8	3	10	112	0.00	30.004 
16:05	69.8	69.8	69.8	51	50.8	3	6	112	0.00	30.004 
16:10	69.8	69.8	69.8	53	51.9	3	7	112	0.00	30.004 
16:15	69.8	69.8	69.8	52	51.4	3	6	112	0.00	30.005 
16:20	69.8	69.8	69.8	52	51.4	2	7	90	0.00	30.005 
16:25	69.9	69.9	69.9	51	50.9	2	7	112	0.00	30.005 
16:30	69.9	69.9	69.9	50	50.4	3	10	90	0.00	29.998 
16:35	69.9	69.9	69.9	49	49.9	4	7	112	0.00	29.998 
16:40	70.1	70.1	70.1	50	50.6	2	8	135	0.00	29.998 
16:45	70.3	70.3	70.3	47	49.1	3	7	135	0.00	29.993 
16:50	70.4	70.4	70.4	50	50.9	2	9	90	0.00	29.993 
16:55	70.4	70.4	70.4	48	49.8	2	6	112	0.00	29.993 
17:00	70.3	70.3	70.3	50	50.8	4	10	112	0.00	29.992 
17:05	70.3	70.3	70.3	47	49.1	4	9	112	0.00	29.992 
17:10	70.4	70.4	70.4	46	48.6	2	8	135	0.00	29.992 
17:15	70.6	70.6	70.6	46	48.8	2	7	112	0.00	29.990 
17:20	70.6	70.6	70.6	46	48.8	3	10	112	0.00	29.990 
17:25	70.4	70.4	70.4	46	48.6	3	11	112	0.00	29.990 
17:30	70.3	70.3	70.3	46	48.5	4	10	112	0.00	29.994 
17:35	70.3	70.3	70.3	46	48.5	3	6	112	0.00	29.994 
17:40	70.4	70.4	70.4	46	48.6	2	11	90	0.00	29.994 
17:45	70.4	70.4	70.4	43	46.8	2	6	112	0.00	29.994 
17:50	70.3	70.3	70.3	43	46.7	2	7	112	0.00	29.994 
17:55	70.1	70.1	70.1	43	46.6	4	9	112	0.00	29.994 
18:00	70.1	70.1	70.1	43	46.6	3	9	90	0.00	29.995 
18:05	69.9	69.9	69.9	43	46.4	4	10	90	0.00	29.995 
18:10	69.8	69.8	69.8	43	46.3	4	12	90	0.00	29.995 
18:15	69.8	69.8	69.8	44	46.9	3	6	112	0.00	29.991 
18:20	69.8	69.8	69.8	46	48.1	3	7	112	0.00	29.991 
18:25	69.6	69.6	69.6	43	46.1	4	9	112	0.00	29.991 
18:30	69.4	69.4	69.4	42	45.3	4	11	112	0.00	29.991 
18:35	69.4	69.4	69.4	40	44.0	3	7	112	0.00	29.991 
18:40	69.3	69.3	69.3	43	45.8	4	10	90	0.00	29.991 
18:45	69.1	69.1	69.1	43	45.7	3	10	90	0.00	29.991 
18:50	68.9	68.9	68.9	42	44.9	2	4	112	0.00	29.991 
18:55	68.9	68.9	68.9	43	45.5	3	6	90	0.00	29.991 
19:00	68.8	68.8	68.8	44	46.0	2	4	112	0.00	29.993 
19:05	68.6	68.6	68.6	45	46.4	2	6	90	0.00	29.993 
19:10	68.4	68.4	68.4	43	45.0	2	6	90	0.00	29.993 
19:15	68.4	68.4	68.4	44	45.6	3	6	90	0.00	30.000 
19:20	68.3	68.3	68.3	45	46.1	2	5	90	0.00	30.000 
19:25	68.3	68.3	68.3	45	46.1	2	5	90	0.00	30.000 
19:30	68.1	68.1	68.1	44	45.4	2	5	112	0.00	30.005 
19:35	67.9	67.9	67.9	44	45.2	2	6	112	0.00	30.005 
19:40	67.8	67.8	67.8	44	45.1	2	6	112	0.00	30.005 
19:45	67.6	67.6	67.6	43	44.3	1	4	112	0.00	30.007 
19:50	67.4	67.4	67.4	43	44.1	1	3	90	0.00	30.007 
19:55	67.3	67.3	67.3	43	44.0	1	5	90	0.00	30.007 
20:00	67.1	67.1	67.1	43	43.8	1	2	90	0.00	30.014 
20:05	66.9	66.9	66.9	45	44.9	0	2	90	0.00	30.014 
20:10	66.6	66.6	66.6	45	44.6	1	4	90	0.00	30.014 
20:15	66.4	66.4	66.4	46	45.0	0	1	90	0.00	30.020 
20:20	66.1	66.1	66.1	47	45.3	0	1	90	0.00	30.020 
20:25	65.8	65.8	65.8	48	45.6	0	1	90	0.00	30.020 
20:30	65.5	65.5	65.5	49	45.8	0	0	---	0.00	30.022 
20:35	65.0	65.0	65.0	50	45.9	0	0	---	0.00	30.022 
20:40	64.5	64.5	64.5	51	46.0	0	0	---	0.00	30.022 
20:45	63.9	63.9	63.9	52	45.9	0	0	---	0.00	30.025 
20:50	63.4	63.4	63.4	53	46.0	0	0	---	0.00	30.025 
20:55	62.7	62.7	62.7	55	46.3	0	0	---	0.00	30.025 
21:00	62.3	62.3	62.3	56	46.4	0	0	---	0.00	30.029 
21:05	61.6	61.6	61.6	58	46.7	0	0	---	0.00	30.029 
21:10	61.2	61.2	61.2	59	46.8	0	0	---	0.00	30.029 
21:15	60.7	60.7	60.7	61	47.2	0	0	---	0.00	30.032 
21:20	60.1	60.1	60.1	62	47.0	0	0	---	0.00	30.032 
21:25	59.6	59.6	59.6	63	47.0	0	0	---	0.00	30.032 
21:30	59.2	59.2	59.2	63	46.6	0	0	---	0.00	30.034 
21:35	58.7	58.7	58.7	65	47.0	0	0	---	0.00	30.034 
21:40	58.1	58.1	58.1	66	46.8	0	0	---	0.00	30.034 
21:45	57.6	57.6	57.6	68	47.1	0	0	---	0.00	30.034 
21:50	57.2	57.2	57.2	70	47.5	0	0	---	0.00	30.034 
21:55	56.7	56.7	56.7	72	47.8	0	0	---	0.00	30.034 
22:00	56.3	56.3	56.3	73	47.8	0	0	---	0.00	30.041 
22:05	56.0	56.0	56.0	74	47.8	0	0	---	0.00	30.041 
22:10	55.7	55.7	55.7	76	48.3	0	0	---	0.00	30.041 
22:15	55.4	55.4	55.4	77	48.3	0	0	---	0.00	30.042 
22:20	55.1	55.1	55.1	78	48.4	0	0	---	0.00	30.042 
22:25	54.8	54.8	54.8	79	48.4	0	0	---	0.00	30.042 
22:30	54.5	54.5	54.5	80	48.5	0	0	---	0.00	30.049 
22:35	54.2	54.2	54.2	81	48.5	0	0	---	0.00	30.049 
22:40	53.9	53.9	53.9	81	48.2	0	0	---	0.00	30.049 
22:45	53.8	53.8	53.8	81	48.1	0	0	---	0.00	30.056 
22:50	53.5	53.5	53.5	82	48.1	0	0	---	0.00	30.056 
22:55	53.3	53.3	53.3	82	47.9	0	0	---	0.00	30.056 
23:00	53.1	53.1	53.1	83	48.1	0	0	---	0.00	30.057 
23:05	52.8	52.8	52.8	84	48.1	0	0	---	0.00	30.057 
23:10	52.6	52.6	52.6	84	47.9	0	0	---	0.00	30.057 
23:15	52.3	52.3	52.3	84	47.6	0	0	---	0.00	30.054 
23:20	52.2	52.2	52.2	85	47.8	0	0	---	0.00	30.054 
23:25	51.9	51.9	51.9	85	47.5	0	0	---	0.00	30.054 
23:30	51.7	51.7	51.7	86	47.6	0	0	---	0.00	30.053 
23:35	51.6	51.6	51.6	86	47.5	0	0	---	0.00	30.053 
23:40	51.4	51.4	51.4	87	47.7	0	0	---	0.00	30.053 
23:45	51.3	51.3	51.3	87	47.6	0	0	---	0.00	30.053 
23:50	51.1	51.1	51.1	88	47.7	0	0	---	0.00	30.053 
23:55	51.0	51.0	51.0	88	47.6	0	0	---	0.00	30.053 

CoCoRaHS
IN-AL-39
A2 Web Hosting
Creative Commons License
GoDaddy
search engine by freefind advanced

loaded 2018-11-13 17:02:53 • last modified 2010-11-18 10:43:29
Privacy PolicyDisclaimer
• wx.awcolley.com is powered by PmWiki v.2002016 •
• all content (unless otherwise noted) © 2018 A W Colley